createdAt,value
2022-09-27T00:01:03.581Z,12.47
2022-09-27T00:03:30.626Z,12.40
2022-09-27T00:06:25.230Z,12.56
2022-09-27T00:08:52.068Z,12.46
2022-09-27T00:11:27.829Z,12.40
2022-09-27T00:13:55.739Z,12.36
2022-09-27T00:16:24.128Z,12.20
2022-09-27T00:18:51.155Z,12.41
2022-09-27T00:21:18.375Z,12.48
2022-09-27T00:23:45.373Z,12.55
2022-09-27T00:26:13.848Z,12.59
2022-09-27T00:28:40.885Z,12.63
2022-09-27T00:31:17.723Z,12.63
2022-09-27T00:33:44.406Z,12.51
2022-09-27T00:36:11.102Z,12.64
2022-09-27T00:38:37.806Z,12.65
2022-09-27T00:41:04.618Z,12.65
2022-09-27T00:43:45.848Z,12.56
2022-09-27T00:46:18.379Z,12.52
2022-09-27T00:48:46.305Z,12.53
2022-09-27T00:51:13.005Z,12.40
2022-09-27T00:53:49.280Z,12.32
2022-09-27T00:56:22.307Z,12.39
2022-09-27T00:58:56.055Z,12.31
2022-09-27T01:01:22.977Z,12.21
2022-09-27T01:04:00.665Z,12.13
2022-09-27T01:06:27.436Z,12.21
2022-09-27T01:08:54.004Z,12.02
2022-09-27T01:11:32.512Z,12.12
2022-09-27T01:13:59.161Z,12.00
2022-09-27T01:16:54.981Z,11.88
2022-09-27T01:19:57.307Z,11.77
2022-09-27T01:22:28.712Z,11.78
2022-09-27T01:25:01.590Z,11.66
2022-09-27T01:27:53.293Z,11.81
2022-09-27T01:30:22.908Z,11.95
2022-09-27T01:33:32.227Z,11.75
2022-09-27T01:36:05.629Z,11.75
2022-09-27T01:38:56.330Z,11.90
2022-09-27T01:41:35.726Z,11.68
2022-09-27T01:44:39.144Z,11.86
2022-09-27T01:47:29.025Z,11.53
2022-09-27T01:50:21.286Z,11.64
2022-09-27T01:53:01.628Z,11.78
2022-09-27T01:55:35.751Z,11.45
2022-09-27T01:59:04.008Z,11.77
2022-09-27T02:01:35.028Z,11.72
2022-09-27T02:04:05.175Z,11.80
2022-09-27T02:06:39.199Z,11.84
2022-09-27T02:09:30.951Z,11.80
2022-09-27T02:12:23.013Z,11.64
2022-09-27T02:15:09.829Z,11.72
2022-09-27T02:17:41.082Z,11.78
2022-09-27T02:20:07.928Z,11.89
2022-09-27T02:22:50.413Z,11.82
2022-09-27T02:25:28.224Z,11.80
2022-09-27T02:28:08.677Z,11.71
2022-09-27T02:30:36.510Z,11.74
2022-09-27T02:33:20.473Z,11.80
2022-09-27T02:35:47.493Z,11.81
2022-09-27T02:38:14.250Z,11.58
2022-09-27T02:40:47.059Z,11.68
2022-09-27T02:43:17.286Z,11.68
2022-09-27T02:45:59.844Z,11.68
2022-09-27T02:48:48.074Z,11.68
2022-09-27T02:51:42.183Z,11.72
2022-09-27T02:54:19.040Z,11.64
2022-09-27T02:57:24.544Z,11.54
2022-09-27T03:00:21.914Z,11.34
2022-09-27T03:03:09.824Z,11.07
2022-09-27T03:05:54.537Z,11.32
2022-09-27T03:08:21.640Z,11.33
2022-09-27T03:10:48.671Z,11.24
2022-09-27T03:13:16.427Z,11.30
2022-09-27T03:15:43.782Z,11.31
2022-09-27T03:18:39.837Z,11.52
2022-09-27T03:21:40.110Z,11.44
2022-09-27T03:24:08.668Z,11.25
2022-09-27T03:26:35.337Z,11.45
2022-09-27T03:29:02.053Z,11.32
2022-09-27T03:31:28.809Z,11.24
2022-09-27T03:34:18.634Z,11.33
2022-09-27T03:36:45.460Z,11.29
2022-09-27T03:39:12.075Z,11.26
2022-09-27T03:41:38.673Z,11.39
2022-09-27T03:44:05.424Z,11.37
2022-09-27T03:46:32.300Z,11.34
2022-09-27T03:48:59.073Z,11.34
2022-09-27T03:51:25.802Z,11.26
2022-09-27T03:53:52.513Z,11.46
2022-09-27T03:56:19.217Z,11.32
2022-09-27T03:58:45.836Z,11.41
2022-09-27T04:01:14.539Z,11.55
2022-09-27T04:03:42.718Z,11.36
2022-09-27T04:06:31.082Z,11.38
2022-09-27T04:08:57.732Z,11.44
2022-09-27T04:11:33.309Z,11.26
2022-09-27T04:14:00.016Z,11.30
2022-09-27T04:16:27.582Z,11.25
2022-09-27T04:19:26.635Z,11.11
2022-09-27T04:22:04.176Z,10.99
2022-09-27T04:24:32.974Z,11.10
2022-09-27T04:27:19.561Z,11.05
2022-09-27T04:29:49.786Z,10.97
2022-09-27T04:32:44.389Z,11.25
2022-09-27T04:35:55.889Z,11.20
2022-09-27T04:38:23.965Z,11.24
2022-09-27T04:40:51.601Z,11.17
2022-09-27T04:43:18.540Z,11.24
2022-09-27T04:45:45.338Z,10.89
2022-09-27T04:48:12.459Z,11.06
2022-09-27T04:50:40.312Z,11.02
2022-09-27T04:53:07.486Z,11.08
2022-09-27T04:55:34.345Z,11.04
2022-09-27T04:58:01.573Z,11.19
2022-09-27T05:00:29.144Z,11.06
2022-09-27T05:03:02.994Z,11.08
2022-09-27T05:05:53.339Z,11.13
2022-09-27T05:08:21.044Z,10.98
2022-09-27T05:11:07.644Z,11.01
2022-09-27T05:13:34.348Z,10.92
2022-09-27T05:16:04.380Z,11.10
2022-09-27T05:18:57.735Z,10.93
2022-09-27T05:21:47.028Z,10.95
2022-09-27T05:24:13.813Z,11.01
2022-09-27T05:26:41.845Z,10.86
2022-09-27T05:29:08.479Z,10.86
2022-09-27T05:31:35.287Z,10.85
2022-09-27T05:34:02.492Z,10.72
2022-09-27T05:36:37.248Z,10.67
2022-09-27T05:39:04.871Z,10.73
2022-09-27T05:41:32.760Z,10.68
2022-09-27T05:43:59.857Z,10.58
2022-09-27T05:46:27.391Z,10.60
2022-09-27T05:48:54.128Z,10.61
2022-09-27T05:51:21.097Z,10.58
2022-09-27T05:53:47.969Z,10.59
2022-09-27T05:56:24.849Z,10.65
2022-09-27T05:59:27.765Z,10.72
2022-09-27T06:02:23.837Z,10.85
2022-09-27T06:04:54.734Z,10.65
2022-09-27T06:07:40.673Z,10.76
2022-09-27T06:10:14.325Z,10.71
2022-09-27T06:12:41.923Z,10.65
2022-09-27T06:15:25.614Z,10.55
2022-09-27T06:17:52.261Z,10.53
2022-09-27T06:20:20.882Z,10.62
2022-09-27T06:22:47.924Z,10.62
2022-09-27T06:25:15.018Z,10.78
2022-09-27T06:27:55.137Z,10.53
2022-09-27T06:30:27.089Z,10.65
2022-09-27T06:33:00.858Z,10.50
2022-09-27T06:35:39.278Z,10.58
2022-09-27T06:38:09.208Z,10.71
2022-09-27T06:40:38.763Z,10.73
2022-09-27T06:43:29.383Z,10.79
2022-09-27T06:46:05.772Z,10.84
2022-09-27T06:49:10.746Z,10.58
2022-09-27T06:51:38.667Z,10.66
2022-09-27T06:54:05.640Z,10.63
2022-09-27T06:56:32.290Z,10.74
2022-09-27T06:59:17.691Z,10.65
2022-09-27T07:01:45.411Z,10.67
2022-09-27T07:04:30.672Z,10.82
2022-09-27T07:07:32.483Z,10.74
2022-09-27T07:09:59.422Z,10.90
2022-09-27T07:12:27.459Z,10.89
2022-09-27T07:14:54.233Z,10.93
2022-09-27T07:17:20.869Z,11.10
2022-09-27T07:19:51.325Z,11.12
2022-09-27T07:22:18.189Z,11.08
2022-09-27T07:24:50.592Z,10.99
2022-09-27T07:27:18.225Z,11.07
2022-09-27T07:29:45.440Z,11.16
2022-09-27T07:32:11.981Z,11.14
2022-09-27T07:34:39.034Z,11.20
2022-09-27T07:37:06.472Z,11.18
2022-09-27T07:39:37.901Z,11.34
2022-09-27T07:42:06.123Z,11.32
2022-09-27T07:44:34.467Z,11.36
2022-09-27T07:47:20.113Z,11.35
2022-09-27T07:50:05.141Z,11.42
2022-09-27T07:52:47.598Z,11.53
2022-09-27T07:55:35.105Z,11.54
2022-09-27T07:58:13.634Z,11.53
2022-09-27T08:00:40.925Z,11.66
2022-09-27T08:03:17.579Z,11.51
2022-09-27T08:05:47.444Z,11.65
2022-09-27T08:08:15.833Z,11.58
2022-09-27T08:10:47.439Z,11.70
2022-09-27T08:13:20.178Z,11.71
2022-09-27T08:15:48.713Z,11.64
2022-09-27T08:18:16.389Z,11.70
2022-09-27T08:21:00.894Z,11.52
2022-09-27T08:23:54.083Z,11.74
2022-09-27T08:26:30.463Z,11.68
2022-09-27T08:29:04.660Z,11.64
2022-09-27T08:31:37.748Z,11.54
2022-09-27T08:34:05.050Z,11.73
2022-09-27T08:36:35.865Z,11.79
2022-09-27T08:39:04.079Z,11.87
2022-09-27T08:42:24.740Z,11.93
2022-09-27T08:45:03.420Z,11.99
2022-09-27T08:47:40.577Z,12.02
2022-09-27T08:50:30.756Z,12.09
2022-09-27T08:53:25.648Z,12.18
2022-09-27T08:55:59.918Z,12.18
2022-09-27T08:58:33.072Z,12.19
2022-09-27T09:01:14.833Z,11.96
2022-09-27T09:03:58.177Z,11.98
2022-09-27T09:06:34.675Z,12.23
2022-09-27T09:09:13.466Z,12.49
2022-09-27T09:12:08.015Z,12.60
2022-09-27T09:14:59.738Z,12.65
2022-09-27T09:17:47.786Z,12.57
2022-09-27T09:20:53.108Z,12.52
2022-09-27T09:23:36.985Z,12.53
2022-09-27T09:26:38.472Z,12.47
2022-09-27T09:29:14.229Z,12.45
2022-09-27T09:31:46.037Z,12.38
2022-09-27T09:34:14.328Z,12.45
2022-09-27T09:36:59.395Z,12.67
2022-09-27T09:39:39.505Z,12.82
2022-09-27T09:42:19.806Z,12.73
2022-09-27T09:44:54.191Z,12.66
2022-09-27T09:47:30.184Z,12.66
2022-09-27T09:50:02.547Z,12.70
2022-09-27T09:52:40.374Z,12.72
2022-09-27T09:55:33.380Z,12.77
2022-09-27T09:58:51.287Z,12.46
2022-09-27T10:01:27.676Z,12.15
2022-09-27T10:03:56.762Z,12.04
2022-09-27T10:06:25.221Z,11.56
2022-09-27T10:08:54.772Z,11.07
2022-09-27T10:11:40.986Z,11.20
2022-09-27T10:14:18.472Z,11.14
2022-09-27T10:16:53.843Z,11.27
2022-09-27T10:19:33.075Z,11.32
2022-09-27T10:22:13.541Z,11.37
2022-09-27T10:25:01.873Z,11.24
2022-09-27T10:27:56.316Z,11.41
2022-09-27T10:30:29.371Z,11.59
2022-09-27T10:33:00.666Z,11.61
2022-09-27T10:35:49.241Z,11.99
2022-09-27T10:38:31.942Z,12.38
2022-09-27T10:41:31.593Z,12.37
2022-09-27T10:44:29.306Z,12.82
2022-09-27T10:47:26.274Z,12.85
2022-09-27T10:50:49.834Z,12.84
2022-09-27T10:53:36.828Z,12.87
2022-09-27T10:56:25.038Z,12.52
2022-09-27T10:58:52.452Z,12.12
2022-09-27T11:01:20.768Z,12.16
2022-09-27T11:04:03.140Z,11.87
2022-09-27T11:06:37.683Z,11.94
2022-09-27T11:09:26.555Z,12.14
2022-09-27T11:12:13.084Z,12.06
2022-09-27T11:14:41.217Z,12.41
2022-09-27T11:17:20.310Z,12.49
2022-09-27T11:20:16.638Z,12.62
2022-09-27T11:23:23.306Z,12.90
2022-09-27T11:26:14.694Z,13.03
2022-09-27T11:33:13.587Z,12.65
2022-09-27T11:36:10.393Z,12.49
2022-09-27T11:39:01.773Z,12.46
2022-09-27T11:41:43.111Z,12.27
2022-09-27T11:44:35.028Z,12.36
2022-09-27T11:47:26.198Z,12.32
2022-09-27T11:50:08.389Z,12.17
2022-09-27T11:52:56.877Z,12.40
2022-09-27T11:55:32.567Z,12.30
2022-09-27T11:58:14.475Z,12.36
2022-09-27T12:01:13.507Z,12.50
2022-09-27T12:04:12.985Z,13.07
2022-09-27T12:07:12.567Z,13.24
2022-09-27T12:09:46.044Z,13.17
2022-09-27T12:12:19.203Z,13.10
2022-09-27T12:14:56.383Z,13.03
2022-09-27T12:17:28.394Z,13.00
2022-09-27T12:19:59.954Z,12.99
2022-09-27T12:23:02.500Z,12.92
2022-09-27T12:26:03.344Z,12.67
2022-09-27T12:28:54.165Z,12.01
2022-09-27T12:31:32.055Z,12.09
2022-09-27T12:34:21.174Z,11.83
2022-09-27T12:36:56.050Z,12.19
2022-09-27T12:39:28.824Z,12.50
2022-09-27T12:42:21.603Z,12.94
2022-09-27T12:44:50.886Z,13.23
2022-09-27T12:47:27.691Z,13.10
2022-09-27T12:50:06.866Z,13.21
2022-09-27T12:52:41.524Z,13.18
2022-09-27T12:55:27.925Z,13.50
2022-09-27T12:58:29.305Z,13.70
2022-09-27T13:01:00.806Z,14.25
2022-09-27T13:03:59.519Z,14.40
2022-09-27T13:06:41.544Z,14.55
2022-09-27T13:09:11.245Z,14.71
2022-09-27T13:12:01.305Z,14.41
2022-09-27T13:14:39.253Z,14.35
2022-09-27T13:17:06.333Z,14.35
2022-09-27T13:19:35.959Z,14.21
2022-09-27T13:22:49.441Z,13.82
2022-09-27T13:26:04.003Z,13.61
2022-09-27T13:28:59.192Z,13.63
2022-09-27T13:31:54.445Z,13.56
2022-09-27T13:34:44.657Z,13.56
2022-09-27T13:37:40.005Z,13.62
2022-09-27T13:40:28.438Z,13.65
2022-09-27T13:43:13.113Z,13.84
2022-09-27T13:46:00.127Z,13.75
2022-09-27T13:48:32.615Z,13.59
2022-09-27T13:51:03.378Z,13.62
2022-09-27T13:53:35.320Z,13.43
2022-09-27T13:56:02.471Z,13.45
2022-09-27T13:58:43.523Z,13.34
2022-09-27T14:01:42.088Z,13.33
2022-09-27T14:04:18.338Z,13.32
2022-09-27T14:06:50.092Z,13.43
2022-09-27T14:09:40.325Z,13.34
2022-09-27T14:12:27.305Z,13.61
2022-09-27T14:14:55.950Z,13.67
2022-09-27T14:17:23.901Z,13.45
2022-09-27T14:19:51.773Z,13.63
2022-09-27T14:22:22.062Z,13.25
2022-09-27T14:25:00.341Z,13.22
2022-09-27T14:27:37.869Z,13.42
2022-09-27T14:30:27.954Z,13.32
2022-09-27T14:33:34.271Z,13.08
2022-09-27T14:36:27.263Z,13.34
2022-09-27T14:38:58.921Z,12.96
2022-09-27T14:41:37.980Z,12.81
2022-09-27T14:44:04.743Z,12.89
2022-09-27T14:46:32.478Z,13.02
2022-09-27T14:49:11.349Z,12.81
2022-09-27T14:51:38.582Z,13.00
2022-09-27T14:54:07.126Z,12.74
2022-09-27T14:56:37.444Z,12.24
2022-09-27T14:59:12.514Z,12.30
2022-09-27T15:01:40.179Z,12.42
2022-09-27T15:04:13.234Z,12.56
2022-09-27T15:06:40.023Z,12.38
2022-09-27T15:09:10.131Z,12.40
2022-09-27T15:11:39.204Z,12.45
2022-09-27T15:14:06.046Z,12.40
2022-09-27T15:16:33.834Z,12.42
2022-09-27T15:19:03.814Z,12.39
2022-09-27T15:21:36.333Z,12.41
2022-09-27T15:24:04.187Z,12.40
2022-09-27T15:26:47.508Z,12.42
2022-09-27T15:29:22.975Z,12.59
2022-09-27T15:32:05.428Z,12.60
2022-09-27T15:34:34.369Z,12.60
2022-09-27T15:37:06.248Z,12.70
2022-09-27T15:39:38.375Z,12.48
2022-09-27T15:42:17.327Z,12.40
2022-09-27T15:44:45.519Z,12.45
2022-09-27T15:47:42.851Z,12.55
2022-09-27T15:50:15.524Z,12.52
2022-09-27T15:52:51.204Z,12.61
2022-09-27T15:55:20.248Z,12.70
2022-09-27T15:57:53.295Z,12.65
2022-09-27T16:00:20.705Z,12.61
2022-09-27T16:02:47.609Z,12.39
2022-09-27T16:05:14.344Z,12.46
2022-09-27T16:07:40.921Z,12.35
2022-09-27T16:10:36.541Z,12.26
2022-09-27T16:13:03.370Z,12.27
2022-09-27T16:15:31.003Z,12.25
2022-09-27T16:17:57.945Z,12.10
2022-09-27T16:20:27.306Z,12.13
2022-09-27T16:22:55.420Z,12.05
2022-09-27T16:25:23.393Z,12.36
2022-09-27T16:27:50.170Z,12.26
2022-09-27T16:30:17.245Z,12.19
2022-09-27T16:32:48.649Z,12.12
2022-09-27T16:35:16.919Z,11.99
2022-09-27T16:37:43.669Z,12.12
2022-09-27T16:40:11.730Z,12.02
2022-09-27T16:42:39.212Z,12.00
2022-09-27T16:45:10.501Z,12.02
2022-09-27T16:47:39.521Z,12.05
2022-09-27T16:50:25.328Z,12.04
2022-09-27T16:52:52.234Z,12.16
2022-09-27T16:55:20.736Z,12.16
2022-09-27T16:57:48.109Z,12.11
2022-09-27T17:00:15.549Z,11.99
2022-09-27T17:02:43.961Z,11.93
2022-09-27T17:05:10.854Z,12.00
2022-09-27T17:07:37.435Z,11.90
2022-09-27T17:10:04.930Z,11.94
2022-09-27T17:12:32.444Z,11.97
2022-09-27T17:14:59.571Z,11.83
2022-09-27T17:17:26.810Z,11.78
2022-09-27T17:19:53.385Z,11.76
2022-09-27T17:22:20.010Z,11.60
2022-09-27T17:24:46.693Z,11.62
2022-09-27T17:27:13.412Z,11.57
2022-09-27T17:29:39.984Z,11.63
2022-09-27T17:32:08.713Z,11.67
2022-09-27T17:34:36.476Z,11.74
2022-09-27T17:37:03.119Z,11.79
2022-09-27T17:39:29.669Z,11.63
2022-09-27T17:41:56.396Z,11.55
2022-09-27T17:44:23.781Z,11.57
2022-09-27T17:47:10.340Z,11.60
2022-09-27T17:49:55.482Z,11.53
2022-09-27T17:52:23.444Z,11.44
2022-09-27T17:54:51.677Z,11.36
2022-09-27T17:57:18.167Z,11.22
2022-09-27T17:59:44.800Z,11.33
2022-09-27T18:02:11.483Z,11.28
2022-09-27T18:04:38.252Z,11.08
2022-09-27T18:07:04.975Z,11.07
2022-09-27T18:09:31.504Z,11.22
2022-09-27T18:11:58.119Z,11.27
2022-09-27T18:14:26.607Z,11.26
2022-09-27T18:16:57.669Z,11.32
2022-09-27T18:19:24.606Z,11.17
2022-09-27T18:21:51.633Z,11.21
2022-09-27T18:24:18.265Z,11.26
2022-09-27T18:26:48.442Z,11.09
2022-09-27T18:29:18.521Z,11.22
2022-09-27T18:31:49.003Z,10.84
2022-09-27T18:34:20.181Z,11.13
2022-09-27T18:36:46.992Z,11.13
2022-09-27T18:39:18.864Z,11.07
2022-09-27T18:41:48.450Z,11.12
2022-09-27T18:44:15.439Z,11.11
2022-09-27T18:46:42.652Z,11.05
2022-09-27T18:49:14.080Z,11.01
2022-09-27T18:51:44.269Z,11.10
2022-09-27T18:54:19.592Z,11.24
2022-09-27T18:56:47.671Z,11.20
2022-09-27T18:59:14.977Z,11.25
2022-09-27T19:01:45.171Z,11.27
2022-09-27T19:04:21.628Z,11.28
2022-09-27T19:06:51.108Z,11.26
2022-09-27T19:09:17.952Z,11.34
2022-09-27T19:11:45.084Z,11.28
2022-09-27T19:14:16.527Z,11.31
2022-09-27T19:16:44.766Z,11.22
2022-09-27T19:19:11.266Z,11.21
2022-09-27T19:21:37.867Z,11.17
2022-09-27T19:24:04.451Z,11.19
2022-09-27T19:26:31.072Z,11.15
2022-09-27T19:28:58.843Z,11.19
2022-09-27T19:31:26.743Z,11.28
2022-09-27T19:33:59.063Z,11.26
2022-09-27T19:36:26.867Z,11.18
2022-09-27T19:38:53.507Z,11.23
2022-09-27T19:41:20.128Z,11.17
2022-09-27T19:43:54.255Z,11.20
2022-09-27T19:46:22.292Z,11.11
2022-09-27T19:48:49.966Z,11.12
2022-09-27T19:51:25.299Z,11.10
2022-09-27T19:53:53.210Z,11.02
2022-09-27T19:56:21.118Z,10.97
2022-09-27T19:58:47.781Z,10.97
2022-09-27T20:01:15.853Z,10.95
2022-09-27T20:03:44.011Z,10.96
2022-09-27T20:06:15.912Z,10.70
2022-09-27T20:08:43.859Z,10.66
2022-09-27T20:11:18.716Z,10.73
2022-09-27T20:13:45.494Z,10.67
2022-09-27T20:16:14.643Z,10.63
2022-09-27T20:18:46.383Z,10.72
2022-09-27T20:21:13.766Z,10.71
2022-09-27T20:23:40.750Z,10.80
2022-09-27T20:26:10.248Z,10.63
2022-09-27T20:28:48.137Z,10.61
2022-09-27T20:31:18.401Z,10.60
2022-09-27T20:33:46.616Z,10.46
2022-09-27T20:36:19.261Z,10.58
2022-09-27T20:38:48.409Z,10.69
2022-09-27T20:41:18.180Z,10.56
2022-09-27T20:43:45.857Z,10.65
2022-09-27T20:46:17.770Z,10.63
2022-09-27T20:48:46.569Z,10.49
2022-09-27T20:51:14.639Z,10.46
2022-09-27T20:53:43.042Z,10.52
2022-09-27T20:56:21.039Z,10.44
2022-09-27T20:58:48.995Z,10.44
2022-09-27T21:01:16.298Z,10.46
2022-09-27T21:03:42.946Z,10.29
2022-09-27T21:06:09.554Z,10.40
2022-09-27T21:08:36.139Z,10.41
2022-09-27T21:11:13.834Z,10.43
2022-09-27T21:13:42.091Z,10.36
2022-09-27T21:16:13.866Z,10.50
2022-09-27T21:18:41.621Z,10.51
2022-09-27T21:21:13.567Z,10.53
2022-09-27T21:23:44.773Z,10.61
2022-09-27T21:26:17.751Z,10.60
2022-09-27T21:28:49.877Z,10.59
2022-09-27T21:31:22.531Z,10.47
2022-09-27T21:33:55.855Z,10.62
2022-09-27T21:36:23.688Z,10.59
2022-09-27T21:38:50.919Z,10.62
2022-09-27T21:41:18.736Z,10.57
2022-09-27T21:43:47.698Z,10.67
2022-09-27T21:46:26.266Z,10.70
2022-09-27T21:48:56.066Z,10.72
2022-09-27T21:51:25.443Z,10.73
2022-09-27T21:53:53.924Z,10.73
2022-09-27T21:56:22.168Z,10.61
2022-09-27T21:58:49.627Z,10.67
2022-09-27T22:01:18.446Z,10.73
2022-09-27T22:03:46.545Z,10.67
2022-09-27T22:06:15.511Z,10.58
2022-09-27T22:08:42.834Z,10.64
2022-09-27T22:11:09.829Z,10.56
2022-09-27T22:13:36.460Z,10.59
2022-09-27T22:16:08.838Z,10.61
2022-09-27T22:18:37.379Z,10.62
2022-09-27T22:21:05.663Z,10.64
2022-09-27T22:23:32.885Z,10.57
2022-09-27T22:26:00.252Z,10.59
2022-09-27T22:28:27.255Z,10.68
2022-09-27T22:30:53.924Z,10.66
2022-09-27T22:33:20.470Z,10.62
2022-09-27T22:35:48.099Z,10.65
2022-09-27T22:38:15.523Z,10.57
2022-09-27T22:40:42.263Z,10.50
2022-09-27T22:43:08.931Z,10.23
2022-09-27T22:45:35.388Z,10.13
2022-09-27T22:48:02.040Z,10.20
2022-09-27T22:50:28.699Z,10.28
2022-09-27T22:52:55.238Z,10.12
2022-09-27T22:55:21.776Z,10.27
2022-09-27T22:57:48.295Z,10.28
2022-09-27T23:00:14.922Z,10.18
2022-09-27T23:02:41.503Z,10.18
2022-09-27T23:05:08.591Z,10.08
2022-09-27T23:07:35.169Z,10.14
2022-09-27T23:10:01.716Z,10.24
2022-09-27T23:12:28.271Z,10.07
2022-09-27T23:14:54.752Z,10.24
2022-09-27T23:17:21.314Z,10.17
2022-09-27T23:19:47.899Z,10.01
2022-09-27T23:22:14.482Z,10.22
2022-09-27T23:24:41.053Z,10.25
2022-09-27T23:27:26.227Z,10.27
2022-09-27T23:29:52.750Z,10.30
2022-09-27T23:32:19.309Z,10.25
2022-09-27T23:34:46.077Z,10.20
2022-09-27T23:37:12.678Z,10.08
2022-09-27T23:39:39.248Z,10.06
2022-09-27T23:42:06.547Z,10.05
2022-09-27T23:44:33.087Z,9.91
2022-09-27T23:47:00.530Z,9.96
2022-09-27T23:49:27.670Z,9.88
2022-09-27T23:51:55.378Z,10.05
2022-09-27T23:54:21.943Z,9.98
2022-09-27T23:56:49.344Z,10.05
2022-09-27T23:59:16.919Z,10.15
